Time;durP1;ratioP1;P1;durP2;ratioP2;P2;SDS_P1;SDS_P2;PMS_P1;PMS_P2;Temp;Humidity;BMP_temperature;BMP_pressure;BME280_temperature;BME280_humidity;BME280_pressure;Samples;Min_cycle;Max_cycle;Signal;HPM_P1;HPM_P2
2023/07/16 00:00:01;;;;;;;5.68;4.00;;;29.20;53.30;;;;;;5113391;28;20058;-82
2023/07/16 00:02:26;;;;;;;4.53;4.07;;;29.10;53.40;;;;;;5113899;28;20041;-82
2023/07/16 00:04:52;;;;;;;8.43;4.75;;;29.10;54.30;;;;;;5113412;28;20036;-82
2023/07/16 00:07:18;;;;;;;8.15;4.40;;;29.10;53.40;;;;;;5113940;28;20066;-82
2023/07/16 00:09:44;;;;;;;5.95;4.15;;;29.00;53.50;;;;;;5113883;28;20036;-82
2023/07/16 00:12:10;;;;;;;5.30;4.28;;;29.10;53.40;;;;;;5112639;28;20077;-81
2023/07/16 00:14:36;;;;;;;5.68;4.05;;;29.00;53.40;;;;;;5113578;28;20082;-81
2023/07/16 00:17:03;;;;;;;7.30;4.35;;;29.10;53.40;;;;;;5112437;28;20032;-80
2023/07/16 00:19:29;;;;;;;8.60;4.60;;;29.00;53.50;;;;;;5112368;28;20085;-82
2023/07/16 00:21:55;;;;;;;7.10;4.70;;;29.00;53.40;;;;;;5113473;28;20491;-81
2023/07/16 00:24:20;;;;;;;6.10;4.20;;;28.90;53.00;;;;;;5113589;28;20023;-82
2023/07/16 00:26:46;;;;;;;6.63;4.10;;;29.00;53.40;;;;;;5113527;28;20035;-82
2023/07/16 00:29:12;;;;;;;6.60;4.65;;;29.00;53.60;;;;;;5113207;27;20023;-81
2023/07/16 00:31:38;;;;;;;6.97;4.88;;;29.00;53.70;;;;;;5113418;28;20109;-82
2023/07/16 00:34:04;;;;;;;7.65;4.63;;;29.00;54.00;;;;;;5112077;28;20463;-81
2023/07/16 00:36:30;;;;;;;9.60;4.47;;;29.10;54.10;;;;;;5113573;28;20114;-81
2023/07/16 00:38:56;;;;;;;5.70;4.07;;;28.70;53.50;;;;;;5113590;28;20439;-81
2023/07/16 00:41:22;;;;;;;11.10;4.13;;;29.00;54.10;;;;;;5113303;28;20036;-82
2023/07/16 00:43:48;;;;;;;14.00;4.80;;;29.00;54.10;;;;;;5111935;28;20030;-82
2023/07/16 00:46:15;;;;;;;5.38;3.78;;;29.00;54.10;;;;;;5113342;28;20065;-81
2023/07/16 00:48:43;;;;;;;10.50;4.20;;;29.00;54.10;;;;;;5112881;27;20028;-82
2023/07/16 00:51:09;;;;;;;5.50;4.20;;;29.00;54.10;;;;;;5111659;28;20423;-82
2023/07/16 00:53:35;;;;;;;6.18;4.30;;;29.00;54.20;;;;;;5111635;28;20028;-76
2023/07/16 00:56:01;;;;;;;6.03;3.92;;;29.10;54.30;;;;;;5111395;28;20058;-76
2023/07/16 00:58:27;;;;;;;12.57;4.50;;;28.90;53.60;;;;;;5111679;28;20050;-77
2023/07/16 01:00:54;;;;;;;7.72;4.03;;;29.00;54.20;;;;;;5111494;28;20024;-77
2023/07/16 01:03:21;;;;;;;4.22;3.83;;;29.00;54.30;;;;;;5112526;28;20151;-76
2023/07/16 01:06:00;;;;;;;5.03;4.07;;;29.00;54.40;;;;;;5111595;28;20483;-77
2023/07/16 01:08:37;;;;;;;6.03;4.18;;;29.00;54.40;;;;;;5112459;28;20494;-76
2023/07/16 01:11:05;;;;;;;5.95;4.63;;;28.90;53.80;;;;;;5109749;28;20052;-76
2023/07/16 01:13:33;;;;;;;7.35;4.10;;;28.90;53.90;;;;;;5109915;28;20132;-76
2023/07/16 01:15:59;;;;;;;5.93;4.35;;;29.00;54.50;;;;;;5110049;28;20059;-76
2023/07/16 01:18:25;;;;;;;7.80;5.03;;;28.90;53.90;;;;;;5109870;28;20031;-76
2023/07/16 01:20:51;;;;;;;7.75;4.80;;;28.90;53.90;;;;;;5109994;28;20047;-76
2023/07/16 01:23:23;;;;;;;7.75;4.20;;;28.80;53.90;;;;;;5109972;28;20096;-76
2023/07/16 01:26:19;;;;;;;7.45;4.53;;;28.80;54.00;;;;;;5092684;28;20483;-76
2023/07/16 01:29:11;;;;;;;4.93;3.90;;;28.90;54.10;;;;;;5109747;28;20098;-76
2023/07/16 01:31:40;;;;;;;4.70;3.85;;;28.80;54.70;;;;;;5108962;28;20043;-76
2023/07/16 01:34:06;;;;;;;8.82;4.47;;;28.90;54.20;;;;;;5109533;28;20053;-76
2023/07/16 01:36:34;;;;;;;5.68;3.75;;;28.90;54.30;;;;;;5109699;28;20035;-76
2023/07/16 01:39:00;;;;;;;4.18;3.78;;;28.90;54.30;;;;;;5109747;28;20031;-76
2023/07/16 01:41:26;;;;;;;5.93;4.10;;;29.00;55.00;;;;;;5110160;28;20391;-76
2023/07/16 01:43:52;;;;;;;9.60;4.78;;;28.90;54.40;;;;;;5110820;28;20046;-76
2023/07/16 01:46:18;;;;;;;5.13;4.22;;;28.90;54.40;;;;;;5110618;28;20047;-75
2023/07/16 01:48:44;;;;;;;6.32;4.32;;;28.90;54.40;;;;;;5111888;28;20104;-76
2023/07/16 01:51:13;;;;;;;5.72;5.07;;;28.90;54.50;;;;;;5112035;28;20036;-76
2023/07/16 01:53:40;;;;;;;5.05;4.40;;;29.10;55.10;;;;;;5110769;28;20383;-74
2023/07/16 01:56:06;;;;;;;3.42;3.13;;;28.90;54.80;;;;;;5110457;28;20035;-76
2023/07/16 01:58:32;;;;;;;3.38;2.80;;;28.90;54.50;;;;;;5110584;28;20075;-76
2023/07/16 02:00:58;;;;;;;3.63;2.75;;;28.80;54.60;;;;;;5111865;28;20056;-76
2023/07/16 02:03:24;;;;;;;3.75;2.92;;;28.90;54.70;;;;;;5111755;28;20059;-76
2023/07/16 02:05:50;;;;;;;3.17;2.88;;;29.00;55.20;;;;;;5111602;28;20031;-76
2023/07/16 02:08:18;;;;;;;3.72;3.33;;;28.90;54.60;;;;;;5111598;28;20071;-76
2023/07/16 02:10:44;;;;;;;5.25;2.97;;;28.90;54.70;;;;;;5093537;28;20109;-76
2023/07/16 02:13:11;;;;;;;3.58;3.03;;;28.90;54.60;;;;;;5129531;28;20043;-76
2023/07/16 02:15:37;;;;;;;3.65;2.88;;;29.00;55.20;;;;;;5129407;28;20405;-76
2023/07/16 02:18:04;;;;;;;4.53;3.40;;;28.90;54.70;;;;;;5129738;28;20035;-76
2023/07/16 02:20:31;;;;;;;7.15;3.42;;;28.90;54.80;;;;;;5129756;27;20403;-76
2023/07/16 02:22:56;;;;;;;3.85;3.38;;;29.00;55.40;;;;;;5132951;27;20043;-76
2023/07/16 02:25:23;;;;;;;3.30;3.00;;;28.80;54.80;;;;;;5116495;27;20042;-76
2023/07/16 02:27:49;;;;;;;7.18;4.57;;;28.90;54.90;;;;;;5116681;27;20560;-76
2023/07/16 02:30:15;;;;;;;5.45;4.05;;;28.80;54.90;;;;;;5116676;27;20039;-76
2023/07/16 02:32:43;;;;;;;6.50;3.90;;;28.80;54.90;;;;;;5133566;27;20414;-76
2023/07/16 02:35:10;;;;;;;7.75;4.00;;;29.00;55.50;;;;;;5133600;27;20478;-76
2023/07/16 02:37:36;;;;;;;5.43;4.07;;;29.00;55.50;;;;;;5133473;27;20841;-77
2023/07/16 02:40:02;;;;;;;4.65;3.95;;;28.90;55.00;;;;;;5133750;27;20423;-76
2023/07/16 02:42:29;;;;;;;5.65;3.97;;;29.00;55.40;;;;;;5116595;27;20038;-76
2023/07/16 02:44:55;;;;;;;5.28;4.30;;;28.90;55.00;;;;;;5118764;27;20031;-76
2023/07/16 02:47:21;;;;;;;4.40;3.58;;;29.00;55.60;;;;;;5133004;27;20234;-77
2023/07/16 02:49:53;;;;;;;4.20;3.65;;;28.90;55.00;;;;;;5133386;27;20051;-76
2023/07/16 02:52:19;;;;;;;5.55;3.95;;;28.90;55.00;;;;;;5133418;27;20600;-79
2023/07/16 02:54:45;;;;;;;6.57;4.00;;;29.00;55.60;;;;;;5132900;27;20059;-76
2023/07/16 02:57:11;;;;;;;4.80;4.25;;;29.00;55.60;;;;;;5133216;27;20040;-76
2023/07/16 02:59:37;;;;;;;3.10;2.80;;;29.00;55.60;;;;;;5116198;27;20039;-77
2023/07/16 03:02:03;;;;;;;3.67;3.10;;;28.80;55.10;;;;;;5133195;27;20074;-77
2023/07/16 03:04:29;;;;;;;3.63;3.00;;;28.80;55.10;;;;;;5133065;27;20027;-77
2023/07/16 03:06:55;;;;;;;4.68;3.40;;;29.00;55.60;;;;;;5133025;27;20406;-77
2023/07/16 03:09:22;;;;;;;4.25;3.58;;;28.80;55.10;;;;;;5133304;27;20039;-76
2023/07/16 03:11:48;;;;;;;3.38;3.08;;;28.90;55.10;;;;;;5132851;27;20036;-76
2023/07/16 03:14:15;;;;;;;4.65;3.40;;;28.80;55.10;;;;;;5133127;27;20031;-76
2023/07/16 03:16:41;;;;;;;9.65;4.05;;;28.90;55.20;;;;;;5115425;27;20043;-76
2023/07/16 03:19:09;;;;;;;5.82;3.97;;;28.80;55.20;;;;;;5113230;28;20096;-76
2023/07/16 03:21:35;;;;;;;6.40;4.78;;;28.90;55.30;;;;;;5113469;28;20815;-77
2023/07/16 03:24:01;;;;;;;5.45;3.88;;;28.90;55.30;;;;;;5096696;28;20031;-76
2023/07/16 03:26:27;;;;;;;3.88;3.30;;;28.90;55.30;;;;;;5096361;28;20072;-76
2023/07/16 03:28:53;;;;;;;3.50;2.72;;;28.80;55.30;;;;;;5113301;28;20039;-76
2023/07/16 03:31:19;;;;;;;4.05;3.15;;;28.90;55.30;;;;;;5096605;28;20059;-77
2023/07/16 03:33:46;;;;;;;4.03;3.45;;;28.80;55.40;;;;;;5113350;28;20085;-76
2023/07/16 03:36:13;;;;;;;4.43;3.13;;;29.00;55.90;;;;;;5113250;28;20031;-77
2023/07/16 03:38:39;;;;;;;3.65;3.15;;;28.80;55.40;;;;;;5113262;28;20027;-76
2023/07/16 03:41:05;;;;;;;3.58;3.15;;;28.90;55.30;;;;;;5132321;27;20070;-76
2023/07/16 03:43:32;;;;;;;3.30;2.92;;;28.80;55.40;;;;;;5114941;27;20514;-76
2023/07/16 03:46:09;;;;;;;3.25;2.95;;;28.90;55.40;;;;;;5114624;27;20129;-76
2023/07/16 03:48:36;;;;;;;5.18;3.03;;;28.90;55.40;;;;;;5114911;27;20043;-76
2023/07/16 03:51:02;;;;;;;2.88;2.67;;;28.90;55.40;;;;;;5114984;27;20047;-76
2023/07/16 03:53:28;;;;;;;3.80;2.80;;;28.90;55.40;;;;;;5132203;27;20049;-76
2023/07/16 03:55:54;;;;;;;4.55;2.88;;;28.80;55.40;;;;;;5087431;28;20049;-76
2023/07/16 03:58:20;;;;;;;3.85;3.40;;;28.90;55.40;;;;;;5070709;28;20550;-77
2023/07/16 04:00:46;;;;;;;7.00;4.22;;;29.00;55.90;;;;;;5071003;28;20048;-76
2023/07/16 04:03:12;;;;;;;3.20;2.65;;;28.80;55.40;;;;;;5070868;28;20086;-76
2023/07/16 04:05:38;;;;;;;4.05;3.55;;;28.90;55.40;;;;;;5087141;28;20512;-76
2023/07/16 04:08:05;;;;;;;3.28;2.97;;;28.70;55.40;;;;;;5087470;28;20049;-76
2023/07/16 04:10:31;;;;;;;3.80;2.97;;;28.80;55.40;;;;;;5070420;28;20048;-79
2023/07/16 04:12:58;;;;;;;3.20;2.90;;;28.80;55.50;;;;;;5070923;28;20520;-77
2023/07/16 04:15:23;;;;;;;3.88;3.25;;;28.80;55.30;;;;;;5070288;28;20056;-79
2023/07/16 04:17:49;;;;;;;4.85;3.92;;;28.80;55.10;;;;;;5070511;28;20040;-77
2023/07/16 04:20:15;;;;;;;6.28;4.10;;;28.80;54.80;;;;;;5070558;28;20090;-77
2023/07/16 04:22:41;;;;;;;5.60;4.32;;;29.00;55.00;;;;;;5070499;28;20094;-76
2023/07/16 04:25:08;;;;;;;9.27;4.30;;;29.00;56.10;;;;;;5070543;28;20041;-74
2023/07/16 04:27:34;;;;;;;9.43;4.70;;;29.60;57.30;;;;;;5103869;28;20104;-75
2023/07/16 04:30:00;;;;;;;10.85;5.38;;;29.80;56.70;;;;;;5113745;28;20114;-77
2023/07/16 04:32:26;;;;;;;8.07;5.82;;;29.90;55.70;;;;;;5113694;28;20164;-76
2023/07/16 04:34:51;;;;;;;6.80;4.60;;;29.70;54.10;;;;;;5113453;28;20084;-76
2023/07/16 04:37:17;;;;;;;9.95;5.00;;;29.70;54.10;;;;;;5113088;28;20031;-77
2023/07/16 04:39:43;;;;;;;5.30;4.80;;;29.50;54.20;;;;;;5112984;28;20036;-75
2023/07/16 04:42:09;;;;;;;4.80;4.38;;;29.40;54.20;;;;;;5111567;28;20024;-75
2023/07/16 04:44:35;;;;;;;5.65;4.50;;;29.30;54.30;;;;;;5112474;28;20459;-75
2023/07/16 04:47:01;;;;;;;7.47;4.07;;;29.40;54.40;;;;;;5112797;28;20104;-73
2023/07/16 04:49:27;;;;;;;5.10;4.22;;;29.30;54.50;;;;;;5112812;28;20046;-75
2023/07/16 04:51:53;;;;;;;4.95;3.92;;;29.30;54.70;;;;;;5113099;28;20429;-75
2023/07/16 04:54:19;;;;;;;7.45;3.53;;;29.30;54.90;;;;;;5112755;28;20031;-74
2023/07/16 04:56:45;;;;;;;5.07;4.22;;;29.40;55.10;;;;;;5112984;28;20087;-77
2023/07/16 04:59:11;;;;;;;4.28;3.88;;;29.20;55.20;;;;;;5111500;28;20036;-75
2023/07/16 05:01:37;;;;;;;6.45;4.47;;;29.10;55.30;;;;;;5113018;28;20078;-75
2023/07/16 05:04:03;;;;;;;4.68;4.03;;;29.30;54.00;;;;;;5112655;28;20471;-73
2023/07/16 05:06:29;;;;;;;5.43;4.38;;;29.30;53.20;;;;;;5127371;27;20065;-76
2023/07/16 05:08:55;;;;;;;5.10;3.65;;;29.10;52.50;;;;;;5112486;28;20031;-72
2023/07/16 05:11:21;;;;;;;4.00;3.58;;;29.20;52.00;;;;;;5113049;27;20043;-73
2023/07/16 05:13:47;;;;;;;7.43;4.25;;;29.20;50.80;;;;;;5130558;27;20119;-74
2023/07/16 05:16:13;;;;;;;7.35;3.83;;;29.20;50.10;;;;;;5130452;27;20134;-73
2023/07/16 05:18:39;;;;;;;7.07;3.60;;;29.20;49.70;;;;;;5130069;27;20091;-73
2023/07/16 05:21:05;;;;;;;7.57;4.53;;;29.20;49.90;;;;;;5130083;27;20399;-73
2023/07/16 05:23:31;;;;;;;9.27;3.80;;;29.10;49.10;;;;;;5130312;27;20047;-73
2023/07/16 05:25:57;;;;;;;4.93;3.47;;;29.10;49.30;;;;;;5113016;27;20039;-74
2023/07/16 05:28:23;;;;;;;7.72;3.80;;;29.30;49.40;;;;;;5130397;27;20039;-73
2023/07/16 05:31:00;;;;;;;8.05;3.42;;;29.30;49.30;;;;;;5079327;27;20055;-74
2023/07/16 05:33:26;;;;;;;4.38;3.47;;;29.20;49.30;;;;;;5113089;27;20115;-73
2023/07/16 05:35:52;;;;;;;5.32;3.83;;;29.20;50.60;;;;;;5130241;27;20114;-72
2023/07/16 05:38:18;;;;;;;6.28;4.10;;;29.30;50.60;;;;;;5130089;27;20059;-73
2023/07/16 05:40:44;;;;;;;5.82;4.35;;;29.40;49.50;;;;;;5113377;27;20050;-72
2023/07/16 05:43:10;;;;;;;7.30;4.65;;;29.20;51.10;;;;;;5113766;27;20040;-72
2023/07/16 05:45:37;;;;;;;9.23;6.32;;;29.30;50.60;;;;;;5111894;28;20051;-72
2023/07/16 05:48:03;;;;;;;10.85;6.88;;;29.30;53.40;;;;;;5075639;28;20071;-72
2023/07/16 05:50:29;;;;;;;9.40;4.68;;;29.30;52.40;;;;;;5111968;28;20031;-70
2023/07/16 05:52:55;;;;;;;8.50;5.18;;;29.40;50.40;;;;;;5111786;28;20070;-73
2023/07/16 05:55:21;;;;;;;4.53;3.50;;;29.30;50.30;;;;;;5110247;28;20031;-75
2023/07/16 05:57:47;;;;;;;4.28;3.80;;;29.30;50.00;;;;;;5128950;27;20046;-75
2023/07/16 06:00:13;;;;;;;4.32;3.60;;;29.40;50.20;;;;;;5129032;27;20040;-74
2023/07/16 06:02:42;;;;;;;7.10;3.83;;;29.20;50.00;;;;;;5122465;27;20054;-74
2023/07/16 06:05:09;;;;;;;7.78;3.65;;;29.40;49.40;;;;;;5129321;27;20044;-73
2023/07/16 06:07:35;;;;;;;5.22;4.50;;;29.20;49.30;;;;;;5129334;27;20150;-73
2023/07/16 06:10:01;;;;;;;4.20;3.47;;;29.20;48.50;;;;;;5129395;27;20139;-71
2023/07/16 06:12:27;;;;;;;6.57;3.97;;;29.20;49.00;;;;;;5129524;28;20471;-74
2023/07/16 06:14:53;;;;;;;5.50;4.13;;;29.20;49.50;;;;;;5129638;28;20050;-74
2023/07/16 06:17:19;;;;;;;4.00;3.60;;;29.30;49.70;;;;;;5112426;28;20043;-76
2023/07/16 06:19:48;;;;;;;4.55;3.67;;;29.10;49.10;;;;;;5112803;28;20490;-75
2023/07/16 06:22:14;;;;;;;7.18;4.50;;;29.30;50.20;;;;;;5130034;28;20050;-80
2023/07/16 06:24:40;;;;;;;5.22;3.55;;;29.30;49.20;;;;;;5129789;28;20039;-78
2023/07/16 06:27:06;;;;;;;8.32;5.00;;;29.40;49.20;;;;;;5129289;28;20573;-78
2023/07/16 06:29:32;;;;;;;4.30;3.45;;;29.30;49.30;;;;;;5094443;28;20145;-78
2023/07/16 06:31:59;;;;;;;4.90;3.38;;;29.30;49.50;;;;;;5111550;28;20103;-80
2023/07/16 06:34:25;;;;;;;4.53;3.63;;;29.40;49.80;;;;;;5111109;28;20042;-81
2023/07/16 06:36:51;;;;;;;4.88;3.92;;;29.40;50.20;;;;;;5110113;28;20116;-78
2023/07/16 06:39:17;;;;;;;3.95;3.55;;;29.40;50.50;;;;;;5111235;28;20062;-78
2023/07/16 06:41:43;;;;;;;5.97;4.00;;;29.30;50.80;;;;;;5110281;28;20035;-78
2023/07/16 06:44:09;;;;;;;5.00;3.65;;;29.50;51.40;;;;;;5111637;28;20027;-78
2023/07/16 06:46:35;;;;;;;5.35;4.28;;;29.40;51.80;;;;;;5109938;28;20048;-78
2023/07/16 06:49:01;;;;;;;7.03;3.95;;;29.40;52.20;;;;;;5110113;28;20039;-76
2023/07/16 06:51:29;;;;;;;8.88;4.20;;;29.30;52.70;;;;;;5111681;28;20047;-77
2023/07/16 06:53:55;;;;;;;6.10;3.60;;;29.30;53.30;;;;;;5111199;28;20039;-78
2023/07/16 06:56:21;;;;;;;6.93;3.70;;;29.30;52.90;;;;;;5110963;28;20092;-76
2023/07/16 06:58:47;;;;;;;4.80;3.00;;;29.20;53.00;;;;;;5111465;28;20028;-80
2023/07/16 07:01:13;;;;;;;3.22;2.92;;;29.30;52.90;;;;;;5110296;28;20372;-79
2023/07/16 07:03:39;;;;;;;4.72;3.22;;;29.40;52.50;;;;;;5089367;28;20097;-78
2023/07/16 07:06:05;;;;;;;8.90;3.47;;;29.30;52.60;;;;;;5098021;28;20028;-80
2023/07/16 07:08:31;;;;;;;4.32;3.92;;;29.40;52.50;;;;;;5112107;28;20415;-75
2023/07/16 07:10:57;;;;;;;4.40;3.65;;;29.40;52.50;;;;;;5114876;28;20038;-79
2023/07/16 07:13:24;;;;;;;5.07;3.70;;;29.40;52.60;;;;;;5114888;28;20028;-77
2023/07/16 07:15:50;;;;;;;8.73;3.53;;;29.30;52.60;;;;;;5113605;28;20050;-76
2023/07/16 07:18:16;;;;;;;5.28;3.30;;;29.30;52.70;;;;;;5114862;28;20487;-76
2023/07/16 07:20:42;;;;;;;5.55;3.33;;;29.30;52.70;;;;;;5114933;28;20042;-77
2023/07/16 07:23:08;;;;;;;7.63;4.10;;;29.40;52.70;;;;;;5113756;28;20024;-79
2023/07/16 07:25:34;;;;;;;7.78;3.67;;;29.30;53.10;;;;;;5112750;28;20093;-77
2023/07/16 07:28:01;;;;;;;4.22;3.08;;;29.40;53.10;;;;;;5096434;28;20084;-76
2023/07/16 07:30:27;;;;;;;6.82;3.42;;;29.70;53.00;;;;;;5114628;28;20028;-75
2023/07/16 07:32:53;;;;;;;3.47;3.13;;;29.30;52.90;;;;;;5113261;28;20051;-75
2023/07/16 07:35:19;;;;;;;9.18;3.70;;;29.50;52.30;;;;;;5114577;28;20037;-78
2023/07/16 07:37:45;;;;;;;4.70;3.05;;;29.40;51.70;;;;;;5112903;28;20037;-75
2023/07/16 07:40:11;;;;;;;4.43;2.72;;;29.40;51.60;;;;;;5079292;28;20117;-75
2023/07/16 07:42:37;;;;;;;5.55;3.63;;;29.30;51.40;;;;;;5112863;28;20085;-73
2023/07/16 07:45:03;;;;;;;4.20;3.05;;;29.40;51.30;;;;;;5095820;28;20039;-75
2023/07/16 07:47:30;;;;;;;5.15;3.75;;;29.50;51.50;;;;;;5112388;28;20456;-77
2023/07/16 07:49:56;;;;;;;7.35;3.70;;;29.30;51.60;;;;;;5112777;28;20077;-77
2023/07/16 07:52:22;;;;;;;4.63;2.85;;;29.30;51.70;;;;;;5112746;28;20036;-77
2023/07/16 07:54:48;;;;;;;4.78;2.80;;;29.50;51.80;;;;;;5113701;28;20027;-77
2023/07/16 07:57:14;;;;;;;7.75;3.47;;;29.40;51.90;;;;;;5113725;28;20039;-76
2023/07/16 07:59:40;;;;;;;6.47;2.85;;;29.30;52.00;;;;;;5113721;28;20073;-74
2023/07/16 08:02:06;;;;;;;6.45;3.08;;;29.30;52.20;;;;;;5113867;28;20035;-77
2023/07/16 08:04:32;;;;;;;4.97;3.60;;;29.30;52.20;;;;;;5113754;28;20074;-75
2023/07/16 08:06:58;;;;;;;3.35;2.90;;;29.30;52.20;;;;;;5113528;28;20059;-79
2023/07/16 08:09:26;;;;;;;5.07;3.22;;;29.20;52.30;;;;;;5113508;28;20046;-78
2023/07/16 08:11:52;;;;;;;3.45;2.90;;;29.20;52.50;;;;;;5113703;27;20031;-78
2023/07/16 08:14:18;;;;;;;4.50;3.20;;;29.30;52.80;;;;;;5113621;28;20043;-78
2023/07/16 08:16:44;;;;;;;3.13;2.75;;;29.20;52.80;;;;;;5112055;28;20027;-79
2023/07/16 08:19:10;;;;;;;3.70;3.10;;;29.30;52.70;;;;;;5094455;28;20384;-77
2023/07/16 08:21:37;;;;;;;4.03;3.10;;;29.30;52.60;;;;;;5113420;28;20035;-77
2023/07/16 08:24:06;;;;;;;4.40;3.47;;;29.20;52.60;;;;;;5112161;28;20031;-75
2023/07/16 08:26:32;;;;;;;6.10;3.00;;;29.30;52.50;;;;;;5113316;28;20038;-77
2023/07/16 08:28:59;;;;;;;3.95;3.45;;;29.30;52.50;;;;;;5112148;28;20531;-76
2023/07/16 08:31:25;;;;;;;4.00;3.30;;;29.30;52.70;;;;;;5113131;28;20020;-76
2023/07/16 08:33:51;;;;;;;3.42;3.13;;;29.40;52.90;;;;;;5113368;28;20031;-79
2023/07/16 08:36:17;;;;;;;3.33;2.72;;;29.30;53.20;;;;;;5111182;28;20047;-77
2023/07/16 08:38:43;;;;;;;3.83;3.10;;;29.30;53.10;;;;;;5113080;27;20112;-75
2023/07/16 08:41:09;;;;;;;3.63;2.83;;;29.20;53.20;;;;;;5113463;27;20031;-78
2023/07/16 08:43:35;;;;;;;3.85;3.00;;;29.20;53.20;;;;;;5096695;27;20479;-75
2023/07/16 08:46:02;;;;;;;4.32;3.47;;;29.20;53.20;;;;;;5122436;27;20119;-77
2023/07/16 08:48:29;;;;;;;4.25;2.80;;;29.20;53.10;;;;;;5125729;27;20069;-77
2023/07/16 08:50:57;;;;;;;3.35;3.05;;;29.20;53.20;;;;;;5114908;27;20512;-77
2023/07/16 08:53:23;;;;;;;3.35;3.03;;;29.30;53.20;;;;;;5130949;27;20120;-76
2023/07/16 08:55:49;;;;;;;3.53;2.88;;;29.20;53.30;;;;;;5107431;27;20085;-77
2023/07/16 08:58:15;;;;;;;5.03;3.47;;;29.30;53.30;;;;;;5089714;28;20043;-77
2023/07/16 09:00:45;;;;;;;4.20;3.42;;;29.20;53.20;;;;;;5098055;27;20178;-77
2023/07/16 09:03:21;;;;;;;5.65;3.40;;;29.30;53.20;;;;;;5090416;27;20425;-78
2023/07/16 09:05:47;;;;;;;7.35;3.22;;;29.30;53.20;;;;;;5072688;28;20030;-77
2023/07/16 09:08:14;;;;;;;3.22;2.88;;;29.40;53.20;;;;;;5102280;27;20125;-77
2023/07/16 09:10:41;;;;;;;2.75;2.42;;;29.30;53.10;;;;;;5100530;28;20044;-78
2023/07/16 09:13:08;;;;;;;4.30;3.38;;;29.20;53.10;;;;;;5089608;28;20450;-77
2023/07/16 09:15:34;;;;;;;4.10;3.35;;;29.30;53.10;;;;;;5100939;28;20547;-78
2023/07/16 09:18:00;;;;;;;3.72;2.60;;;29.20;53.10;;;;;;5112170;28;20040;-77
2023/07/16 09:20:30;;;;;;;3.38;2.85;;;29.40;53.10;;;;;;5112478;27;20039;-77
2023/07/16 09:22:57;;;;;;;3.33;3.03;;;29.30;53.10;;;;;;5115561;27;20015;-77
2023/07/16 09:25:31;;;;;;;5.05;3.05;;;29.30;53.10;;;;;;5130961;27;20084;-75
2023/07/16 09:28:01;;;;;;;3.55;2.85;;;29.30;53.10;;;;;;5130495;27;20039;-78
2023/07/16 09:30:34;;;;;;;3.50;2.72;;;29.30;53.00;;;;;;5123585;27;20032;-76
2023/07/16 09:33:10;;;;;;;;;;;29.20;53.10;;;;;;5121409;27;20031;-77
2023/07/16 09:35:36;;;;;;;5.50;3.38;;;29.20;54.10;;;;;;5110873;28;19907;-77
2023/07/16 09:38:03;;;;;;;17.27;11.40;;;29.20;54.10;;;;;;5119517;27;20060;-75
2023/07/16 09:40:29;;;;;;;7.05;4.45;;;29.40;53.60;;;;;;5131085;27;20038;-77
2023/07/16 09:42:56;;;;;;;5.82;3.75;;;29.50;53.70;;;;;;5131997;27;20031;-75
2023/07/16 09:45:22;;;;;;;6.70;3.97;;;29.40;53.90;;;;;;5132394;27;20483;-77
2023/07/16 09:47:48;;;;;;;3.95;3.00;;;29.50;54.10;;;;;;5123481;27;20036;-76
2023/07/16 09:50:14;;;;;;;5.28;3.80;;;29.50;54.40;;;;;;5112061;27;20046;-78
2023/07/16 09:52:42;;;;;;;5.25;3.90;;;29.60;54.50;;;;;;5118185;27;20031;-75
2023/07/16 09:55:09;;;;;;;5.28;3.60;;;29.40;55.10;;;;;;5130320;27;20019;-78
2023/07/16 09:57:38;;;;;;;4.93;3.58;;;29.40;55.30;;;;;;5130692;27;20119;-77
2023/07/16 10:00:11;;;;;;;9.25;4.18;;;29.50;55.50;;;;;;5130407;27;20030;-76
2023/07/16 10:02:44;;;;;;;4.25;3.63;;;29.70;56.00;;;;;;5130868;27;20379;-76
2023/07/16 10:05:13;;;;;;;14.75;4.00;;;29.60;53.90;;;;;;5112897;27;20503;-76
2023/07/16 10:07:40;;;;;;;5.88;3.63;;;29.80;53.90;;;;;;5109121;28;20035;-78
2023/07/16 10:10:09;;;;;;;6.28;3.38;;;29.70;54.20;;;;;;5128305;27;20390;-77
2023/07/16 10:12:36;;;;;;;8.63;4.53;;;29.70;54.40;;;;;;5131008;28;20055;-76
2023/07/16 10:15:04;;;;;;;4.50;3.70;;;29.80;54.00;;;;;;5132057;27;20035;-78
2023/07/16 10:17:32;;;;;;;5.05;3.00;;;29.90;54.70;;;;;;5131961;27;20511;-74
2023/07/16 10:20:11;;;;;;;5.20;3.70;;;29.80;56.70;;;;;;5106066;27;20377;-74
2023/07/16 10:22:46;;;;;;;5.10;3.25;;;29.80;55.80;;;;;;5104891;28;20020;-75
2023/07/16 10:25:18;;;;;;;4.35;3.25;;;29.90;54.90;;;;;;5114169;28;20425;-79
2023/07/16 10:27:46;;;;;;;7.97;3.53;;;29.90;54.30;;;;;;5109718;28;20127;-77
2023/07/16 10:30:12;;;;;;;4.68;3.30;;;29.80;54.10;;;;;;5110318;28;20110;-77
2023/07/16 10:32:39;;;;;;;6.25;3.92;;;29.80;54.20;;;;;;5109632;28;20036;-77
2023/07/16 10:35:06;;;;;;;4.03;3.63;;;29.90;54.90;;;;;;5110070;28;20383;-78
2023/07/16 10:37:32;;;;;;;5.25;3.92;;;30.10;56.80;;;;;;5110767;28;20105;-79
2023/07/16 10:39:59;;;;;;;12.02;4.78;;;30.10;54.70;;;;;;5111468;28;20468;-77
2023/07/16 10:42:27;;;;;;;3.58;3.10;;;30.10;54.70;;;;;;5111677;28;20016;-78
2023/07/16 10:44:55;;;;;;;3.88;3.10;;;30.00;54.60;;;;;;5115437;28;20032;-78
2023/07/16 10:47:29;;;;;;;3.53;2.55;;;30.10;55.70;;;;;;5115388;27;20414;-77
2023/07/16 10:49:55;;;;;;;3.97;2.75;;;30.30;55.50;;;;;;5115394;28;20048;-76
2023/07/16 10:52:22;;;;;;;4.78;3.15;;;30.30;55.30;;;;;;5115423;28;20028;-75
2023/07/16 10:54:49;;;;;;;4.25;2.80;;;30.60;61.30;;;;;;5115164;28;20024;-77
2023/07/16 10:57:16;;;;;;;3.47;2.88;;;30.50;57.80;;;;;;5114689;28;20534;-76
2023/07/16 10:59:45;;;;;;;3.47;2.83;;;30.40;56.30;;;;;;5112186;28;20487;-78
2023/07/16 11:02:15;;;;;;;4.45;2.17;;;30.30;55.50;;;;;;5129233;27;20070;-78
2023/07/16 11:04:43;;;;;;;3.22;2.80;;;30.30;54.70;;;;;;5115606;27;20411;-77
2023/07/16 11:07:14;;;;;;;3.45;2.85;;;30.20;53.80;;;;;;5116176;27;20050;-77
2023/07/16 11:09:50;;;;;;;3.70;2.45;;;30.10;53.00;;;;;;5112085;28;20118;-76
2023/07/16 11:12:21;;;;;;;3.92;2.50;;;30.20;52.40;;;;;;5094944;28;20381;-77
2023/07/16 11:14:55;;;;;;;3.58;2.53;;;30.20;51.70;;;;;;5092464;27;20051;-76
2023/07/16 11:17:23;;;;;;;2.95;2.22;;;30.30;51.20;;;;;;5092342;27;20062;-77
2023/07/16 11:19:51;;;;;;;2.75;2.55;;;30.00;50.70;;;;;;5111563;28;20074;-77
2023/07/16 11:22:17;;;;;;;3.33;2.58;;;30.20;50.30;;;;;;5112293;28;20081;-76
2023/07/16 11:24:46;;;;;;;3.70;2.35;;;30.10;50.00;;;;;;5131217;27;20054;-77
2023/07/16 11:27:14;;;;;;;2.80;2.55;;;30.30;49.60;;;;;;5110683;27;20411;-77
2023/07/16 11:29:41;;;;;;;3.95;3.53;;;30.10;49.30;;;;;;5091514;28;20051;-78
2023/07/16 11:32:08;;;;;;;4.20;2.50;;;30.10;48.90;;;;;;5111241;28;20036;-77
2023/07/16 11:34:34;;;;;;;2.42;2.22;;;30.20;48.40;;;;;;5114659;28;20459;-78
2023/07/16 11:37:10;;;;;;;2.47;2.28;;;30.20;47.90;;;;;;5114523;28;20042;-80
2023/07/16 11:39:36;;;;;;;3.40;3.10;;;30.10;47.40;;;;;;5114294;28;20031;-79
2023/07/16 11:42:05;;;;;;;3.53;2.20;;;30.10;46.80;;;;;;5114175;28;20351;-77
2023/07/16 11:44:35;;;;;;;3.00;2.15;;;30.10;46.40;;;;;;5113110;28;20124;-79
2023/07/16 11:47:02;;;;;;;3.20;2.22;;;30.00;45.90;;;;;;5095657;28;20096;-77
2023/07/16 11:49:28;;;;;;;3.70;2.55;;;29.90;44.80;;;;;;5112933;28;20411;-79
2023/07/16 11:51:54;;;;;;;3.08;2.40;;;30.00;45.10;;;;;;5114288;28;20039;-81
2023/07/16 11:54:20;;;;;;;2.97;2.65;;;30.00;44.80;;;;;;5114049;28;20036;-77
2023/07/16 11:56:47;;;;;;;2.92;2.65;;;30.00;44.50;;;;;;5095681;28;20031;-75
2023/07/16 11:59:13;;;;;;;3.95;2.50;;;29.80;43.60;;;;;;5113710;28;20486;-77
2023/07/16 12:01:39;;;;;;;2.92;2.08;;;29.90;43.30;;;;;;5114231;28;20028;-79
2023/07/16 12:04:05;;;;;;;2.22;2.03;;;29.90;43.10;;;;;;5113637;28;20035;-75
2023/07/16 12:06:31;;;;;;;3.40;1.95;;;29.80;42.90;;;;;;5114344;28;20092;-75
2023/07/16 12:08:57;;;;;;;3.35;2.13;;;29.80;42.80;;;;;;5113557;28;20452;-75
2023/07/16 12:11:23;;;;;;;2.15;1.90;;;29.90;42.90;;;;;;5113724;28;20038;-77
2023/07/16 12:13:51;;;;;;;3.28;2.72;;;29.80;42.80;;;;;;5113518;28;20035;-73
2023/07/16 12:16:17;;;;;;;2.25;2.03;;;29.80;42.80;;;;;;5113970;28;20097;-78
2023/07/16 12:18:42;;;;;;;9.38;2.25;;;29.80;43.00;;;;;;5098705;28;20036;-79
2023/07/16 12:21:08;;;;;;;2.75;1.88;;;29.80;43.00;;;;;;5109220;28;20462;-75
2023/07/16 12:23:35;;;;;;;2.72;2.00;;;29.90;43.30;;;;;;5093318;28;20036;-78
2023/07/16 12:26:01;;;;;;;2.28;1.90;;;29.80;43.40;;;;;;5093127;28;20559;-78
2023/07/16 12:28:27;;;;;;;2.50;2.03;;;29.70;43.10;;;;;;5091899;28;20107;-77
2023/07/16 12:30:53;;;;;;;2.30;1.73;;;29.70;42.90;;;;;;5093152;28;20350;-78
2023/07/16 12:33:19;;;;;;;1.88;1.60;;;29.80;42.60;;;;;;5108711;28;20062;-77
2023/07/16 12:35:45;;;;;;;2.53;2.17;;;29.90;42.50;;;;;;5093083;28;20090;-76
2023/07/16 12:38:11;;;;;;;1.85;1.63;;;29.80;42.50;;;;;;5093082;28;20044;-76
2023/07/16 12:40:40;;;;;;;2.25;2.05;;;29.80;42.40;;;;;;5107515;28;20044;-79
2023/07/16 12:43:07;;;;;;;2.75;2.08;;;29.70;42.50;;;;;;5108452;28;20062;-77
2023/07/16 12:45:33;;;;;;;2.65;1.98;;;29.70;42.50;;;;;;5092689;28;20596;-78